createdAt,value
2022-09-06T00:01:35.699Z,34.90
2022-09-06T00:04:04.062Z,35.00
2022-09-06T00:06:32.608Z,35.10
2022-09-06T00:09:00.876Z,34.80
2022-09-06T00:11:29.293Z,34.60
2022-09-06T00:13:58.653Z,34.70
2022-09-06T00:16:30.459Z,34.90
2022-09-06T00:18:58.961Z,35.20
2022-09-06T00:21:29.870Z,35.10
2022-09-06T00:23:57.936Z,34.90
2022-09-06T00:26:26.130Z,34.90
2022-09-06T00:28:54.162Z,34.90
2022-09-06T00:31:26.187Z,34.90
2022-09-06T00:33:54.824Z,35.30
2022-09-06T00:36:23.387Z,35.30
2022-09-06T00:38:51.565Z,35.20
2022-09-06T00:41:19.837Z,35.20
2022-09-06T00:43:47.924Z,35.20
2022-09-06T00:46:20.278Z,35.40
2022-09-06T00:48:53.361Z,35.40
2022-09-06T00:51:23.032Z,35.50
2022-09-06T00:53:51.675Z,35.20
2022-09-06T00:56:19.884Z,35.10
2022-09-06T00:58:49.653Z,34.90
2022-09-06T01:01:17.890Z,34.50
2022-09-06T01:03:46.102Z,34.70
2022-09-06T01:06:26.909Z,34.60
2022-09-06T01:09:03.304Z,34.70
2022-09-06T01:11:52.869Z,34.80
2022-09-06T01:14:34.807Z,34.90
2022-09-06T01:17:12.137Z,34.80
2022-09-06T01:20:09.705Z,34.90
2022-09-06T01:23:04.668Z,35.30
2022-09-06T01:25:39.474Z,35.40
2022-09-06T01:28:28.940Z,35.60
2022-09-06T01:31:05.927Z,36.60
2022-09-06T01:33:41.445Z,36.00
2022-09-06T01:36:14.602Z,36.10
2022-09-06T01:38:42.905Z,35.90
2022-09-06T01:41:11.541Z,35.70
2022-09-06T01:43:44.988Z,35.50
2022-09-06T01:46:20.539Z,35.80
2022-09-06T01:49:04.761Z,36.20
2022-09-06T01:51:38.911Z,35.50
2022-09-06T01:54:29.319Z,36.30
2022-09-06T01:57:11.233Z,36.30
2022-09-06T02:00:01.473Z,36.90
2022-09-06T02:02:38.318Z,36.90
2022-09-06T02:05:09.447Z,36.90
2022-09-06T02:07:39.169Z,36.80
2022-09-06T02:10:12.909Z,36.80
2022-09-06T02:12:44.489Z,37.00
2022-09-06T02:15:17.844Z,36.90
2022-09-06T02:17:51.858Z,37.00
2022-09-06T02:20:24.044Z,36.80
2022-09-06T02:22:54.175Z,36.80
2022-09-06T02:25:25.694Z,36.60
2022-09-06T02:27:54.489Z,36.20
2022-09-06T02:30:24.234Z,36.20
2022-09-06T02:32:58.294Z,36.30
2022-09-06T02:35:26.874Z,36.20
2022-09-06T02:37:56.326Z,36.60
2022-09-06T02:40:25.152Z,35.80
2022-09-06T02:42:54.118Z,35.90
2022-09-06T02:45:23.517Z,36.00
2022-09-06T02:47:51.528Z,36.30
2022-09-06T02:50:20.420Z,36.50
2022-09-06T02:53:01.274Z,36.40
2022-09-06T02:55:29.316Z,36.20
2022-09-06T02:57:57.428Z,36.40
2022-09-06T03:00:27.334Z,36.30
2022-09-06T03:02:55.736Z,36.10
2022-09-06T03:05:23.966Z,36.40
2022-09-06T03:07:52.568Z,36.20
2022-09-06T03:10:20.833Z,36.20
2022-09-06T03:12:49.424Z,36.10
2022-09-06T03:15:18.375Z,36.20
2022-09-06T03:17:47.812Z,36.20
2022-09-06T03:20:15.940Z,35.60
2022-09-06T03:22:43.960Z,35.90
2022-09-06T03:25:12.233Z,35.80
2022-09-06T03:27:40.747Z,35.70
2022-09-06T03:30:09.724Z,35.90
2022-09-06T03:32:37.801Z,35.80
2022-09-06T03:35:07.811Z,35.80
2022-09-06T03:37:36.306Z,35.90
2022-09-06T03:40:06.177Z,36.20
2022-09-06T03:42:34.389Z,36.00
2022-09-06T03:45:02.418Z,35.90
2022-09-06T03:47:32.565Z,36.20
2022-09-06T03:50:00.628Z,36.20
2022-09-06T03:52:30.025Z,36.30
2022-09-06T03:54:58.105Z,36.40
2022-09-06T03:57:26.148Z,36.30
2022-09-06T03:59:54.180Z,36.50
2022-09-06T04:02:23.646Z,36.00
2022-09-06T04:04:55.389Z,36.40
2022-09-06T04:07:23.560Z,36.50
2022-09-06T04:09:52.951Z,36.20
2022-09-06T04:12:21.152Z,36.20
2022-09-06T04:14:49.256Z,35.90
2022-09-06T04:17:17.314Z,35.80
2022-09-06T04:19:45.397Z,35.90
2022-09-06T04:22:13.562Z,35.90
2022-09-06T04:24:41.589Z,36.10
2022-09-06T04:27:11.104Z,36.20
2022-09-06T04:29:39.163Z,36.30
2022-09-06T04:32:07.580Z,36.50
2022-09-06T04:34:35.682Z,36.40
2022-09-06T04:37:03.731Z,36.30
2022-09-06T04:39:31.920Z,35.70
2022-09-06T04:42:03.303Z,35.50
2022-09-06T04:44:32.716Z,35.60
2022-09-06T04:47:09.981Z,35.90
2022-09-06T04:49:38.007Z,35.40
2022-09-06T04:52:06.085Z,35.40
2022-09-06T04:54:35.033Z,35.70
2022-09-06T04:57:03.121Z,35.20
2022-09-06T04:59:32.738Z,35.30
2022-09-06T05:02:00.904Z,35.60
2022-09-06T05:04:29.197Z,35.50
2022-09-06T05:07:04.651Z,35.10
2022-09-06T05:09:33.481Z,35.30
2022-09-06T05:12:01.891Z,35.40
2022-09-06T05:14:30.839Z,35.30
2022-09-06T05:17:00.254Z,35.90
2022-09-06T05:19:28.926Z,35.70
2022-09-06T05:21:58.214Z,35.80
2022-09-06T05:24:26.311Z,35.70
2022-09-06T05:26:54.321Z,35.90
2022-09-06T05:29:22.423Z,35.00
2022-09-06T05:31:50.505Z,34.60
2022-09-06T05:34:20.264Z,35.10
2022-09-06T05:36:48.340Z,34.10
2022-09-06T05:39:16.508Z,34.60
2022-09-06T05:41:44.529Z,34.60
2022-09-06T05:44:12.544Z,34.90
2022-09-06T05:46:43.601Z,34.90
2022-09-06T05:49:12.289Z,35.10
2022-09-06T05:51:42.202Z,34.40
2022-09-06T05:54:12.643Z,35.10
2022-09-06T05:56:40.677Z,35.10
2022-09-06T05:59:08.778Z,35.10
2022-09-06T06:01:36.877Z,35.20
2022-09-06T06:04:07.986Z,35.40
2022-09-06T06:06:36.190Z,35.30
2022-09-06T06:09:05.674Z,35.70
2022-09-06T06:11:33.706Z,35.60
2022-09-06T06:14:04.447Z,35.60
2022-09-06T06:16:32.865Z,35.50
2022-09-06T06:19:01.315Z,36.60
2022-09-06T06:21:32.725Z,36.10
2022-09-06T06:24:03.351Z,35.60
2022-09-06T06:26:34.765Z,35.50
2022-09-06T06:29:02.985Z,35.90
2022-09-06T06:31:32.303Z,37.20
2022-09-06T06:34:03.121Z,36.50
2022-09-06T06:36:33.710Z,37.00
2022-09-06T06:39:03.285Z,36.40
2022-09-06T06:41:34.064Z,37.50
2022-09-06T06:44:03.525Z,36.60
2022-09-06T06:46:33.555Z,36.40
2022-09-06T06:49:01.562Z,36.50
2022-09-06T06:51:31.949Z,36.40
2022-09-06T06:54:00.140Z,36.90
2022-09-06T06:56:30.070Z,36.50
2022-09-06T06:59:01.483Z,36.50
2022-09-06T07:01:31.472Z,35.90
2022-09-06T07:04:00.118Z,35.30
2022-09-06T07:09:18.252Z,35.80
2022-09-06T07:11:48.720Z,35.80
2022-09-06T07:14:18.597Z,36.70
2022-09-06T07:16:47.030Z,36.50
2022-09-06T07:22:10.487Z,37.00
2022-09-06T07:24:40.333Z,38.10
2022-09-06T07:29:57.757Z,36.00
2022-09-06T07:32:26.306Z,36.20
2022-09-06T07:34:54.358Z,35.90
2022-09-06T07:37:24.190Z,36.40
2022-09-06T07:39:52.690Z,36.10
2022-09-06T07:42:22.187Z,36.80
2022-09-06T07:44:51.023Z,36.60
2022-09-06T07:55:38.997Z,36.10
2022-09-06T07:58:07.069Z,37.40
2022-09-06T08:00:35.248Z,36.10
2022-09-06T08:03:06.613Z,35.50
2022-09-06T08:11:11.396Z,35.30
2022-09-06T08:13:42.186Z,35.90
2022-09-06T08:16:12.428Z,35.30
2022-09-06T08:18:42.008Z,35.60
2022-09-06T08:21:12.876Z,35.30
2022-09-06T08:23:47.601Z,36.40
2022-09-06T08:26:18.035Z,35.10
2022-09-06T08:28:48.117Z,34.70
2022-09-06T08:31:20.521Z,34.20
2022-09-06T08:33:50.010Z,34.70
2022-09-06T08:36:18.149Z,34.40
2022-09-06T08:38:46.682Z,34.20
2022-09-06T08:41:25.102Z,34.10
2022-09-06T08:46:53.188Z,34.40
2022-09-06T08:49:23.051Z,33.60
2022-09-06T08:52:33.539Z,33.30
2022-09-06T08:55:17.474Z,34.20
2022-09-06T08:57:59.237Z,33.20
2022-09-06T09:00:27.483Z,32.90
2022-09-06T09:03:04.459Z,31.80
2022-09-06T09:05:38.392Z,31.40
2022-09-06T09:08:16.067Z,32.10
2022-09-06T09:10:46.600Z,31.60
2022-09-06T09:13:23.211Z,30.80
2022-09-06T09:15:51.386Z,31.70
2022-09-06T09:18:24.173Z,31.70
2022-09-06T09:20:53.902Z,31.30
2022-09-06T09:23:21.961Z,32.00
2022-09-06T09:25:52.668Z,32.60
2022-09-06T09:28:23.735Z,31.50
2022-09-06T09:30:53.714Z,31.80
2022-09-06T09:33:30.856Z,32.20
2022-09-06T09:36:04.508Z,32.90
2022-09-06T09:38:39.160Z,32.40
2022-09-06T09:41:08.908Z,32.00
2022-09-06T09:43:40.760Z,31.60
2022-09-06T09:46:14.602Z,31.40
2022-09-06T09:48:52.381Z,31.50
2022-09-06T09:51:27.421Z,31.30
2022-09-06T09:53:57.869Z,31.10
2022-09-06T09:56:34.326Z,31.70
2022-09-06T09:59:03.739Z,31.40
2022-09-06T10:01:34.080Z,31.40
2022-09-06T10:09:44.286Z,31.90
2022-09-06T10:12:19.026Z,31.60
2022-09-06T10:14:49.504Z,32.50
2022-09-06T10:17:23.457Z,31.10
2022-09-06T10:19:51.558Z,31.30
2022-09-06T10:22:46.588Z,30.80
2022-09-06T10:25:46.361Z,30.90
2022-09-06T10:28:30.202Z,30.70
2022-09-06T10:31:24.522Z,30.90
2022-09-06T10:34:06.755Z,30.20
2022-09-06T10:36:37.780Z,30.90
2022-09-06T10:39:17.581Z,30.90
2022-09-06T10:41:59.524Z,31.10
2022-09-06T10:44:45.953Z,31.00
2022-09-06T10:47:16.570Z,31.50
2022-09-06T10:49:48.814Z,30.80
2022-09-06T10:52:24.143Z,30.50
2022-09-06T10:55:02.167Z,30.60
2022-09-06T11:00:25.487Z,30.10
2022-09-06T11:06:03.361Z,31.10
2022-09-06T11:08:47.140Z,30.00
2022-09-06T11:11:27.618Z,30.70
2022-09-06T11:13:55.736Z,30.00
2022-09-06T11:16:29.671Z,30.40
2022-09-06T11:19:04.198Z,29.80
2022-09-06T11:21:57.215Z,30.50
2022-09-06T11:24:38.436Z,30.00
2022-09-06T11:27:16.953Z,29.90
2022-09-06T11:29:52.362Z,30.00
2022-09-06T11:32:32.860Z,30.30
2022-09-06T11:35:03.912Z,30.30
2022-09-06T11:37:34.717Z,30.30
2022-09-06T11:43:15.312Z,30.00
2022-09-06T11:45:47.608Z,30.00
2022-09-06T11:48:37.312Z,30.00
2022-09-06T11:51:10.728Z,30.00
2022-09-06T11:54:16.280Z,31.00
2022-09-06T11:56:52.550Z,30.30
2022-09-06T11:59:34.637Z,30.50
2022-09-06T12:02:05.327Z,30.50
2022-09-06T12:05:11.894Z,29.70
2022-09-06T12:08:23.818Z,29.50
2022-09-06T12:10:58.645Z,29.70
2022-09-06T12:13:54.868Z,30.00
2022-09-06T12:16:23.922Z,30.20
2022-09-06T12:19:00.367Z,29.80
2022-09-06T12:21:41.020Z,30.90
2022-09-06T12:24:39.788Z,29.90
2022-09-06T12:27:15.663Z,30.40
2022-09-06T12:29:54.932Z,30.00
2022-09-06T12:32:27.879Z,30.40
2022-09-06T12:37:52.150Z,30.10
2022-09-06T12:40:21.839Z,30.00
2022-09-06T12:42:52.495Z,29.80
2022-09-06T12:45:27.051Z,30.90
2022-09-06T12:48:08.514Z,30.20
2022-09-06T12:50:37.075Z,30.20
2022-09-06T12:53:23.334Z,31.00
2022-09-06T12:56:06.090Z,30.20
2022-09-06T12:58:38.747Z,30.20
2022-09-06T13:01:13.146Z,31.30
2022-09-06T13:03:46.120Z,30.70
2022-09-06T13:06:26.760Z,29.90
2022-09-06T13:08:57.922Z,30.10
2022-09-06T13:11:31.537Z,29.80
2022-09-06T13:14:02.363Z,30.60
2022-09-06T13:16:37.657Z,31.40
2022-09-06T13:19:13.655Z,31.30
2022-09-06T13:21:43.325Z,30.30
2022-09-06T13:24:21.002Z,30.20
2022-09-06T13:26:49.536Z,30.50
2022-09-06T13:29:26.613Z,30.20
2022-09-06T13:31:56.937Z,31.20
2022-09-06T13:34:27.181Z,29.70
2022-09-06T13:37:00.927Z,30.00
2022-09-06T13:39:34.437Z,30.00
2022-09-06T13:42:07.492Z,30.20
2022-09-06T13:44:38.676Z,30.40
2022-09-06T13:47:07.424Z,29.80
2022-09-06T13:49:35.480Z,29.90
2022-09-06T13:52:05.660Z,30.70
2022-09-06T13:54:34.020Z,31.00
2022-09-06T13:57:02.651Z,31.10
2022-09-06T13:59:31.610Z,30.10
2022-09-06T14:02:04.826Z,30.30
2022-09-06T14:04:32.888Z,30.40
2022-09-06T14:07:01.206Z,30.20
2022-09-06T14:09:29.355Z,30.00
2022-09-06T14:11:57.708Z,30.00
2022-09-06T14:14:25.986Z,29.90
2022-09-06T14:16:54.075Z,30.50
2022-09-06T14:19:23.568Z,30.20
2022-09-06T14:21:51.732Z,29.90
2022-09-06T14:24:20.131Z,30.30
2022-09-06T14:26:48.747Z,30.60
2022-09-06T14:29:19.099Z,30.70
2022-09-06T14:31:48.343Z,30.20
2022-09-06T14:34:16.699Z,30.70
2022-09-06T14:36:46.153Z,30.10
2022-09-06T14:39:14.174Z,30.70
2022-09-06T14:41:42.152Z,30.50
2022-09-06T14:44:12.833Z,30.60
2022-09-06T14:46:40.844Z,30.90
2022-09-06T14:49:10.496Z,30.90
2022-09-06T14:51:39.750Z,30.20
2022-09-06T14:54:11.291Z,30.50
2022-09-06T14:56:40.652Z,31.00
2022-09-06T14:59:09.701Z,31.20
2022-09-06T15:01:38.985Z,30.90
2022-09-06T15:04:09.889Z,31.90
2022-09-06T15:06:40.592Z,31.10
2022-09-06T15:09:11.437Z,31.50
2022-09-06T15:11:42.601Z,31.70
2022-09-06T15:14:15.292Z,31.60
2022-09-06T15:16:43.685Z,31.90
2022-09-06T15:19:11.813Z,32.00
2022-09-06T15:21:39.890Z,32.20
2022-09-06T15:24:12.223Z,31.40
2022-09-06T15:26:41.092Z,31.50
2022-09-06T15:29:09.337Z,30.80
2022-09-06T15:31:38.323Z,31.10
2022-09-06T15:34:06.660Z,31.80
2022-09-06T15:36:35.053Z,31.50
2022-09-06T15:39:05.700Z,32.00
2022-09-06T15:41:37.080Z,31.40
2022-09-06T15:44:11.666Z,31.40
2022-09-06T15:46:45.596Z,31.50
2022-09-06T15:49:16.120Z,31.60
2022-09-06T15:51:45.430Z,31.80
2022-09-06T15:54:15.416Z,32.20
2022-09-06T15:56:45.818Z,32.00
2022-09-06T15:59:14.071Z,32.20
2022-09-06T16:01:42.138Z,32.30
2022-09-06T16:04:10.216Z,31.60
2022-09-06T16:06:42.052Z,31.60
2022-09-06T16:09:13.980Z,31.50
2022-09-06T16:11:44.146Z,31.70
2022-09-06T16:14:14.000Z,32.00
2022-09-06T16:16:43.317Z,32.00
2022-09-06T16:19:13.050Z,32.20
2022-09-06T16:21:42.885Z,32.20
2022-09-06T16:24:12.356Z,32.10
2022-09-06T16:26:42.286Z,32.40
2022-09-06T16:29:14.040Z,31.90
2022-09-06T16:31:42.648Z,32.20
2022-09-06T16:34:11.608Z,32.40
2022-09-06T16:36:40.130Z,31.90
2022-09-06T16:39:09.099Z,32.00
2022-09-06T16:41:45.693Z,31.70
2022-09-06T16:44:17.340Z,31.70
2022-09-06T16:46:46.688Z,31.50
2022-09-06T16:49:16.726Z,31.50
2022-09-06T16:51:45.041Z,31.70
2022-09-06T16:54:13.862Z,31.50
2022-09-06T16:56:43.790Z,32.00
2022-09-06T16:59:12.950Z,31.80
2022-09-06T17:01:44.577Z,32.30
2022-09-06T17:04:13.934Z,32.10
2022-09-06T17:06:45.815Z,32.20
2022-09-06T17:09:15.839Z,32.10
2022-09-06T17:11:43.837Z,32.20
2022-09-06T17:14:13.592Z,32.20
2022-09-06T17:17:00.785Z,32.20
2022-09-06T17:19:32.346Z,32.20
2022-09-06T17:22:00.409Z,32.20
2022-09-06T17:24:28.446Z,32.00
2022-09-06T17:26:56.587Z,32.10
2022-09-06T17:29:25.750Z,32.00
2022-09-06T17:31:55.318Z,32.10
2022-09-06T17:34:23.705Z,32.20
2022-09-06T17:36:51.961Z,32.50
2022-09-06T17:39:22.371Z,32.80
2022-09-06T17:41:53.521Z,32.40
2022-09-06T17:44:24.513Z,32.90
2022-09-06T17:47:11.444Z,33.20
2022-09-06T17:49:42.477Z,33.10
2022-09-06T17:52:10.501Z,33.10
2022-09-06T17:54:38.554Z,33.40
2022-09-06T17:57:06.548Z,33.40
2022-09-06T17:59:35.968Z,33.70
2022-09-06T18:02:05.921Z,33.30
2022-09-06T18:04:35.772Z,33.50
2022-09-06T18:07:05.326Z,33.50
2022-09-06T18:09:33.431Z,33.60
2022-09-06T18:12:01.928Z,33.70
2022-09-06T18:14:30.128Z,33.80
2022-09-06T18:16:58.213Z,33.60
2022-09-06T18:19:26.878Z,33.80
2022-09-06T18:21:55.175Z,33.60
2022-09-06T18:24:24.497Z,33.70
2022-09-06T18:26:53.530Z,33.80
2022-09-06T18:29:21.688Z,34.40
2022-09-06T18:31:53.310Z,34.30
2022-09-06T18:34:21.543Z,34.40
2022-09-06T18:36:53.246Z,34.20
2022-09-06T18:39:22.173Z,34.20
2022-09-06T18:42:07.018Z,34.60
2022-09-06T18:44:35.569Z,34.80
2022-09-06T18:47:07.920Z,35.10
2022-09-06T18:49:43.209Z,35.50
2022-09-06T18:52:13.773Z,35.20
2022-09-06T18:54:43.678Z,35.40
2022-09-06T18:57:15.346Z,35.10
2022-09-06T18:59:43.807Z,35.20
2022-09-06T19:02:12.203Z,35.30
2022-09-06T19:04:42.186Z,35.40
2022-09-06T19:07:10.219Z,35.40
2022-09-06T19:09:38.511Z,35.70
2022-09-06T19:12:06.901Z,36.00
2022-09-06T19:14:36.315Z,35.90
2022-09-06T19:17:04.554Z,35.80
2022-09-06T19:19:32.654Z,35.80
2022-09-06T19:22:00.742Z,35.90
2022-09-06T19:24:28.774Z,35.90
2022-09-06T19:26:59.945Z,35.60
2022-09-06T19:29:28.568Z,35.30
2022-09-06T19:31:58.029Z,35.40
2022-09-06T19:34:26.192Z,35.30
2022-09-06T19:36:55.322Z,35.60
2022-09-06T19:39:23.536Z,35.80
2022-09-06T19:41:51.633Z,35.90
2022-09-06T19:44:22.202Z,36.00
2022-09-06T19:46:51.057Z,36.10
2022-09-06T19:49:20.784Z,35.90
2022-09-06T19:51:50.767Z,36.10
2022-09-06T19:54:20.151Z,36.00
2022-09-06T19:56:48.737Z,36.10
2022-09-06T19:59:17.634Z,36.00
2022-09-06T20:01:47.307Z,35.80
2022-09-06T20:04:16.938Z,35.70
2022-09-06T20:06:47.225Z,36.00
2022-09-06T20:09:16.507Z,36.00
2022-09-06T20:11:44.516Z,35.90
2022-09-06T20:14:13.069Z,35.90
2022-09-06T20:16:42.452Z,35.90
2022-09-06T20:19:11.868Z,35.70
2022-09-06T20:21:40.021Z,35.50
2022-09-06T20:24:09.540Z,35.40
2022-09-06T20:26:40.356Z,35.10
2022-09-06T20:29:08.547Z,34.90
2022-09-06T20:31:37.571Z,34.80
2022-09-06T20:34:07.703Z,34.90
2022-09-06T20:36:36.464Z,34.90
2022-09-06T20:39:05.249Z,34.50
2022-09-06T20:41:34.799Z,34.80
2022-09-06T20:44:03.654Z,34.30
2022-09-06T20:46:33.795Z,34.40
2022-09-06T20:49:04.641Z,34.30
2022-09-06T20:51:34.801Z,34.10
2022-09-06T20:54:04.646Z,34.10
2022-09-06T20:56:36.096Z,34.20
2022-09-06T20:59:08.793Z,34.30
2022-09-06T21:01:40.504Z,33.80
2022-09-06T21:04:09.752Z,34.00
2022-09-06T21:06:39.867Z,34.20
2022-09-06T21:09:10.936Z,34.00
2022-09-06T21:11:41.115Z,34.00
2022-09-06T21:14:09.575Z,33.90
2022-09-06T21:16:38.742Z,33.80
2022-09-06T21:19:13.251Z,33.70
2022-09-06T21:21:41.676Z,33.70
2022-09-06T21:24:11.219Z,33.50
2022-09-06T21:26:42.787Z,33.20
2022-09-06T21:29:11.425Z,33.20
2022-09-06T21:31:39.467Z,33.20
2022-09-06T21:34:15.654Z,33.10
2022-09-06T21:36:45.154Z,32.90
2022-09-06T21:39:13.870Z,32.90
2022-09-06T21:41:44.390Z,32.80
2022-09-06T21:44:13.122Z,33.00
2022-09-06T21:46:41.957Z,32.80
2022-09-06T21:49:12.315Z,32.80
2022-09-06T21:51:43.611Z,32.60
2022-09-06T21:54:12.572Z,32.90
2022-09-06T21:56:41.254Z,32.70
2022-09-06T21:59:11.065Z,32.50
2022-09-06T22:01:40.614Z,32.40
2022-09-06T22:04:10.724Z,32.80
2022-09-06T22:06:41.682Z,32.40
2022-09-06T22:09:12.058Z,31.90
2022-09-06T22:11:41.622Z,32.00
2022-09-06T22:14:13.354Z,32.40
2022-09-06T22:16:42.191Z,31.60
2022-09-06T22:19:11.489Z,31.50
2022-09-06T22:21:39.697Z,31.90
2022-09-06T22:24:10.051Z,31.50
2022-09-06T22:26:39.817Z,31.70
2022-09-06T22:29:11.025Z,31.70
2022-09-06T22:31:39.798Z,31.70
2022-09-06T22:34:08.367Z,32.00
2022-09-06T22:36:37.058Z,31.50
2022-09-06T22:39:05.606Z,31.40
2022-09-06T22:41:34.923Z,31.60
2022-09-06T22:44:04.252Z,31.30
2022-09-06T22:46:34.294Z,31.10
2022-09-06T22:49:04.098Z,31.30
2022-09-06T22:51:32.496Z,31.60
2022-09-06T22:54:00.637Z,31.60
2022-09-06T22:56:28.768Z,31.50
2022-09-06T22:58:56.997Z,31.20
2022-09-06T23:01:25.199Z,31.40
2022-09-06T23:03:54.720Z,31.10
2022-09-06T23:06:23.258Z,31.80
2022-09-06T23:08:51.789Z,32.00
2022-09-06T23:11:20.287Z,31.20
2022-09-06T23:13:48.622Z,31.30
2022-09-06T23:16:19.345Z,31.70
2022-09-06T23:18:48.623Z,31.30
2022-09-06T23:21:21.224Z,31.50
2022-09-06T23:23:51.119Z,31.60
2022-09-06T23:26:21.563Z,31.40
2022-09-06T23:28:56.254Z,31.60
2022-09-06T23:31:26.056Z,31.40
2022-09-06T23:33:54.578Z,31.70
2022-09-06T23:36:24.438Z,32.00
2022-09-06T23:38:52.720Z,32.00
2022-09-06T23:41:20.877Z,32.00
2022-09-06T23:43:49.405Z,32.00
2022-09-06T23:46:17.830Z,31.80
2022-09-06T23:48:46.055Z,32.40
2022-09-06T23:51:14.250Z,32.80
2022-09-06T23:53:43.766Z,32.90
2022-09-06T23:56:12.456Z,33.10
2022-09-06T23:58:40.964Z,33.50
